sensor_id;sensor_type;location;lat;lon;timestamp;pressure;altitude;pressure_sealevel;temperature
71205;BMP180;58935;54.498;18.544;2024-03-17T00:01:36;100259.60;;;5.60
71205;BMP180;58935;54.498;18.544;2024-03-17T00:04:02;100253.00;;;5.60
71205;BMP180;58935;54.498;18.544;2024-03-17T00:06:28;100256.00;;;5.60
71205;BMP180;58935;54.498;18.544;2024-03-17T00:08:53;100250.00;;;5.60
71205;BMP180;58935;54.498;18.544;2024-03-17T00:11:20;100255.00;;;5.60
71205;BMP180;58935;54.498;18.544;2024-03-17T00:13:46;100258.20;;;5.60
71205;BMP180;58935;54.498;18.544;2024-03-17T00:16:13;100266.00;;;5.60
71205;BMP180;58935;54.498;18.544;2024-03-17T00:18:40;100256.60;;;5.60
71205;BMP180;58935;54.498;18.544;2024-03-17T00:21:06;100256.60;;;5.60
71205;BMP180;58935;54.498;18.544;2024-03-17T00:23:31;100246.40;;;5.60
71205;BMP180;58935;54.498;18.544;2024-03-17T00:25:56;100265.80;;;5.60
71205;BMP180;58935;54.498;18.544;2024-03-17T00:28:22;100266.40;;;5.60
71205;BMP180;58935;54.498;18.544;2024-03-17T00:30:48;100256.40;;;5.60
71205;BMP180;58935;54.498;18.544;2024-03-17T00:33:13;100254.40;;;5.60
71205;BMP180;58935;54.498;18.544;2024-03-17T00:35:39;100259.80;;;5.60
71205;BMP180;58935;54.498;18.544;2024-03-17T00:38:05;100255.80;;;5.60
71205;BMP180;58935;54.498;18.544;2024-03-17T00:40:41;100264.80;;;5.60
71205;BMP180;58935;54.498;18.544;2024-03-17T00:43:09;100266.20;;;5.60
71205;BMP180;58935;54.498;18.544;2024-03-17T00:45:36;100251.00;;;5.60
71205;BMP180;58935;54.498;18.544;2024-03-17T00:48:03;100258.80;;;5.60
71205;BMP180;58935;54.498;18.544;2024-03-17T00:50:28;100260.00;;;5.60
71205;BMP180;58935;54.498;18.544;2024-03-17T00:52:53;100267.80;;;5.60
71205;BMP180;58935;54.498;18.544;2024-03-17T00:55:19;100266.00;;;5.60
71205;BMP180;58935;54.498;18.544;2024-03-17T00:57:44;100259.60;;;5.60
71205;BMP180;58935;54.498;18.544;2024-03-17T01:00:10;100252.80;;;5.60
71205;BMP180;58935;54.498;18.544;2024-03-17T01:02:37;100251.00;;;5.60
71205;BMP180;58935;54.498;18.544;2024-03-17T01:05:03;100256.20;;;5.50
71205;BMP180;58935;54.498;18.544;2024-03-17T01:07:31;100251.00;;;5.48
71205;BMP180;58935;54.498;18.544;2024-03-17T01:09:57;100242.20;;;5.44
71205;BMP180;58935;54.498;18.544;2024-03-17T01:12:23;100255.00;;;5.40
71205;BMP180;58935;54.498;18.544;2024-03-17T01:14:48;100256.80;;;5.40
71205;BMP180;58935;54.498;18.544;2024-03-17T01:17:13;100252.80;;;5.40
71205;BMP180;58935;54.498;18.544;2024-03-17T01:19:39;100254.80;;;5.40
71205;BMP180;58935;54.498;18.544;2024-03-17T01:22:04;100257.40;;;5.40
71205;BMP180;58935;54.498;18.544;2024-03-17T01:24:32;100261.20;;;5.40
71205;BMP180;58935;54.498;18.544;2024-03-17T01:26:59;100247.60;;;5.40
71205;BMP180;58935;54.498;18.544;2024-03-17T01:29:25;100231.00;;;5.30
71205;BMP180;58935;54.498;18.544;2024-03-17T01:31:51;100248.40;;;5.30
71205;BMP180;58935;54.498;18.544;2024-03-17T01:34:19;100253.00;;;5.30
71205;BMP180;58935;54.498;18.544;2024-03-17T01:36:44;100248.40;;;5.30
71205;BMP180;58935;54.498;18.544;2024-03-17T01:39:10;100248.80;;;5.30
71205;BMP180;58935;54.498;18.544;2024-03-17T01:41:39;100257.00;;;5.30
71205;BMP180;58935;54.498;18.544;2024-03-17T01:44:07;100259.20;;;5.28
71205;BMP180;58935;54.498;18.544;2024-03-17T01:46:32;100266.00;;;5.20
71205;BMP180;58935;54.498;18.544;2024-03-17T01:48:58;100280.60;;;5.20
71205;BMP180;58935;54.498;18.544;2024-03-17T01:51:29;100286.00;;;5.00
71205;BMP180;58935;54.498;18.544;2024-03-17T01:53:55;100277.60;;;4.80
71205;BMP180;58935;54.498;18.544;2024-03-17T01:56:21;100280.40;;;4.60
71205;BMP180;58935;54.498;18.544;2024-03-17T01:58:47;100294.40;;;4.50
71205;BMP180;58935;54.498;18.544;2024-03-17T02:01:13;100288.60;;;4.40
71205;BMP180;58935;54.498;18.544;2024-03-17T02:03:41;100283.40;;;4.30
71205;BMP180;58935;54.498;18.544;2024-03-17T02:06:08;100268.40;;;4.20
71205;BMP180;58935;54.498;18.544;2024-03-17T02:13:55;100271.80;;;3.90
71205;BMP180;58935;54.498;18.544;2024-03-17T02:16:22;100268.00;;;3.88
71205;BMP180;58935;54.498;18.544;2024-03-17T02:18:48;100275.80;;;3.82
71205;BMP180;58935;54.498;18.544;2024-03-17T02:21:20;100282.00;;;3.80
71205;BMP180;58935;54.498;18.544;2024-03-17T02:23:48;100275.40;;;3.80
71205;BMP180;58935;54.498;18.544;2024-03-17T02:26:13;100282.40;;;3.80
71205;BMP180;58935;54.498;18.544;2024-03-17T02:28:40;100283.40;;;3.80
71205;BMP180;58935;54.498;18.544;2024-03-17T02:31:08;100281.20;;;3.80
71205;BMP180;58935;54.498;18.544;2024-03-17T02:33:36;100283.80;;;3.80
71205;BMP180;58935;54.498;18.544;2024-03-17T02:36:05;100279.00;;;3.80
71205;BMP180;58935;54.498;18.544;2024-03-17T02:38:33;100280.20;;;3.80
71205;BMP180;58935;54.498;18.544;2024-03-17T02:41:02;100277.80;;;3.80
71205;BMP180;58935;54.498;18.544;2024-03-17T02:43:29;100277.60;;;3.80
71205;BMP180;58935;54.498;18.544;2024-03-17T02:45:54;100276.20;;;3.80
71205;BMP180;58935;54.498;18.544;2024-03-17T02:48:19;100278.00;;;3.80
71205;BMP180;58935;54.498;18.544;2024-03-17T02:50:47;100285.00;;;3.80
71205;BMP180;58935;54.498;18.544;2024-03-17T02:53:15;100278.00;;;3.80
71205;BMP180;58935;54.498;18.544;2024-03-17T02:55:40;100282.60;;;3.80
71205;BMP180;58935;54.498;18.544;2024-03-17T02:58:05;100282.00;;;3.80
71205;BMP180;58935;54.498;18.544;2024-03-17T03:00:33;100283.00;;;3.80
71205;BMP180;58935;54.498;18.544;2024-03-17T03:02:58;100276.00;;;3.80
71205;BMP180;58935;54.498;18.544;2024-03-17T03:05:24;100279.00;;;3.80
71205;BMP180;58935;54.498;18.544;2024-03-17T03:07:53;100275.80;;;3.80
71205;BMP180;58935;54.498;18.544;2024-03-17T03:10:18;100275.60;;;3.70
71205;BMP180;58935;54.498;18.544;2024-03-17T03:12:43;100279.00;;;3.70
71205;BMP180;58935;54.498;18.544;2024-03-17T03:15:09;100272.00;;;3.60
71205;BMP180;58935;54.498;18.544;2024-03-17T03:17:37;100287.60;;;3.60
71205;BMP180;58935;54.498;18.544;2024-03-17T03:20:03;100284.00;;;3.50
71205;BMP180;58935;54.498;18.544;2024-03-17T03:22:28;100291.00;;;3.50
71205;BMP180;58935;54.498;18.544;2024-03-17T03:24:54;100300.00;;;3.50
71205;BMP180;58935;54.498;18.544;2024-03-17T03:27:19;100296.40;;;3.50
71205;BMP180;58935;54.498;18.544;2024-03-17T03:29:44;100298.60;;;3.48
71205;BMP180;58935;54.498;18.544;2024-03-17T03:32:12;100295.80;;;3.48
71205;BMP180;58935;54.498;18.544;2024-03-17T03:34:38;100295.20;;;3.48
71205;BMP180;58935;54.498;18.544;2024-03-17T03:37:04;100292.80;;;3.50
71205;BMP180;58935;54.498;18.544;2024-03-17T03:39:32;100288.80;;;3.50
71205;BMP180;58935;54.498;18.544;2024-03-17T03:41:57;100288.60;;;3.50
71205;BMP180;58935;54.498;18.544;2024-03-17T03:44:23;100290.60;;;3.50
71205;BMP180;58935;54.498;18.544;2024-03-17T03:46:48;100283.60;;;3.50
71205;BMP180;58935;54.498;18.544;2024-03-17T03:49:14;100291.60;;;3.50
71205;BMP180;58935;54.498;18.544;2024-03-17T03:51:41;100280.80;;;3.50
71205;BMP180;58935;54.498;18.544;2024-03-17T03:54:07;100284.80;;;3.50
71205;BMP180;58935;54.498;18.544;2024-03-17T03:56:32;100280.40;;;3.40
71205;BMP180;58935;54.498;18.544;2024-03-17T03:59:01;100278.40;;;3.40
71205;BMP180;58935;54.498;18.544;2024-03-17T04:01:26;100288.60;;;3.30
71205;BMP180;58935;54.498;18.544;2024-03-17T04:03:52;100296.80;;;3.30
71205;BMP180;58935;54.498;18.544;2024-03-17T04:06:17;100292.80;;;3.30
71205;BMP180;58935;54.498;18.544;2024-03-17T04:08:43;100292.20;;;3.20
71205;BMP180;58935;54.498;18.544;2024-03-17T04:11:09;100296.80;;;3.20
71205;BMP180;58935;54.498;18.544;2024-03-17T04:13:35;100298.80;;;3.20
71205;BMP180;58935;54.498;18.544;2024-03-17T04:16:04;100300.00;;;3.20
71205;BMP180;58935;54.498;18.544;2024-03-17T04:18:31;100298.60;;;3.20
71205;BMP180;58935;54.498;18.544;2024-03-17T04:21:02;100297.60;;;3.12
71205;BMP180;58935;54.498;18.544;2024-03-17T04:23:30;100295.20;;;3.10
71205;BMP180;58935;54.498;18.544;2024-03-17T04:25:58;100307.20;;;3.10
71205;BMP180;58935;54.498;18.544;2024-03-17T04:28:24;100302.00;;;3.10
71205;BMP180;58935;54.498;18.544;2024-03-17T04:30:49;100301.40;;;3.02
71205;BMP180;58935;54.498;18.544;2024-03-17T04:33:17;100295.40;;;3.00
71205;BMP180;58935;54.498;18.544;2024-03-17T04:35:42;100288.80;;;3.00
71205;BMP180;58935;54.498;18.544;2024-03-17T04:38:08;100299.60;;;3.00
71205;BMP180;58935;54.498;18.544;2024-03-17T04:40:40;100292.80;;;2.96
71205;BMP180;58935;54.498;18.544;2024-03-17T04:43:06;100299.20;;;2.90
71205;BMP180;58935;54.498;18.544;2024-03-17T04:45:32;100300.80;;;2.90
71205;BMP180;58935;54.498;18.544;2024-03-17T04:47:57;100306.60;;;2.84
71205;BMP180;58935;54.498;18.544;2024-03-17T04:50:23;100309.60;;;2.82
71205;BMP180;58935;54.498;18.544;2024-03-17T04:52:48;100298.20;;;2.80
71205;BMP180;58935;54.498;18.544;2024-03-17T04:55:14;100312.40;;;2.80
71205;BMP180;58935;54.498;18.544;2024-03-17T04:57:43;100307.40;;;2.80
71205;BMP180;58935;54.498;18.544;2024-03-17T05:00:12;100317.40;;;2.80
71205;BMP180;58935;54.498;18.544;2024-03-17T05:02:39;100317.80;;;2.78
71205;BMP180;58935;54.498;18.544;2024-03-17T05:05:05;100327.60;;;2.70
71205;BMP180;58935;54.498;18.544;2024-03-17T05:07:35;100328.60;;;2.70
71205;BMP180;58935;54.498;18.544;2024-03-17T05:10:06;100321.40;;;2.70
71205;BMP180;58935;54.498;18.544;2024-03-17T05:12:32;100337.20;;;2.70
71205;BMP180;58935;54.498;18.544;2024-03-17T05:14:57;100331.20;;;2.66
71205;BMP180;58935;54.498;18.544;2024-03-17T05:17:22;100345.40;;;2.60
71205;BMP180;58935;54.498;18.544;2024-03-17T05:19:48;100348.00;;;2.64
71205;BMP180;58935;54.498;18.544;2024-03-17T05:22:13;100345.00;;;2.64
71205;BMP180;58935;54.498;18.544;2024-03-17T05:24:39;100363.00;;;2.66
71205;BMP180;58935;54.498;18.544;2024-03-17T05:27:05;100368.80;;;2.68
71205;BMP180;58935;54.498;18.544;2024-03-17T05:29:30;100396.20;;;2.62
71205;BMP180;58935;54.498;18.544;2024-03-17T05:31:56;100418.20;;;2.62
71205;BMP180;58935;54.498;18.544;2024-03-17T05:34:21;100428.60;;;2.50
71205;BMP180;58935;54.498;18.544;2024-03-17T05:36:50;100423.00;;;2.40
71205;BMP180;58935;54.498;18.544;2024-03-17T05:39:18;100433.20;;;2.28
71205;BMP180;58935;54.498;18.544;2024-03-17T05:41:47;100432.80;;;2.10
71205;BMP180;58935;54.498;18.544;2024-03-17T05:44:15;100432.40;;;2.00
71205;BMP180;58935;54.498;18.544;2024-03-17T05:46:40;100438.80;;;1.90
71205;BMP180;58935;54.498;18.544;2024-03-17T05:49:07;100442.40;;;1.90
71205;BMP180;58935;54.498;18.544;2024-03-17T05:51:32;100449.40;;;1.80
71205;BMP180;58935;54.498;18.544;2024-03-17T05:53:58;100463.20;;;1.78
71205;BMP180;58935;54.498;18.544;2024-03-17T05:56:24;100469.00;;;1.70
71205;BMP180;58935;54.498;18.544;2024-03-17T05:58:49;100472.20;;;1.70
71205;BMP180;58935;54.498;18.544;2024-03-17T06:01:15;100475.40;;;1.60
71205;BMP180;58935;54.498;18.544;2024-03-17T06:03:40;100478.20;;;1.60
71205;BMP180;58935;54.498;18.544;2024-03-17T06:06:08;100490.20;;;1.60
71205;BMP180;58935;54.498;18.544;2024-03-17T06:08:39;100497.00;;;1.50
71205;BMP180;58935;54.498;18.544;2024-03-17T06:11:06;100498.00;;;1.50
71205;BMP180;58935;54.498;18.544;2024-03-17T06:13:32;100503.00;;;1.46
71205;BMP180;58935;54.498;18.544;2024-03-17T06:15:57;100508.80;;;1.40
71205;BMP180;58935;54.498;18.544;2024-03-17T06:18:27;100516.20;;;1.40
71205;BMP180;58935;54.498;18.544;2024-03-17T06:20:52;100519.20;;;1.40
71205;BMP180;58935;54.498;18.544;2024-03-17T06:23:20;100528.20;;;1.30
71205;BMP180;58935;54.498;18.544;2024-03-17T06:25:48;100531.40;;;1.30
71205;BMP180;58935;54.498;18.544;2024-03-17T06:28:17;100538.20;;;1.30
71205;BMP180;58935;54.498;18.544;2024-03-17T06:30:44;100537.60;;;1.30
71205;BMP180;58935;54.498;18.544;2024-03-17T06:33:15;100553.40;;;1.30
71205;BMP180;58935;54.498;18.544;2024-03-17T06:35:41;100558.60;;;1.30
71205;BMP180;58935;54.498;18.544;2024-03-17T06:38:07;100559.00;;;1.20
71205;BMP180;58935;54.498;18.544;2024-03-17T06:40:36;100567.80;;;1.20
71205;BMP180;58935;54.498;18.544;2024-03-17T06:43:02;100569.60;;;1.20
71205;BMP180;58935;54.498;18.544;2024-03-17T06:45:27;100571.80;;;1.20
71205;BMP180;58935;54.498;18.544;2024-03-17T06:47:53;100577.80;;;1.20
71205;BMP180;58935;54.498;18.544;2024-03-17T06:50:18;100586.80;;;1.20
71205;BMP180;58935;54.498;18.544;2024-03-17T06:52:43;100585.80;;;1.20
71205;BMP180;58935;54.498;18.544;2024-03-17T06:55:09;100584.60;;;1.20
71205;BMP180;58935;54.498;18.544;2024-03-17T06:57:35;100592.00;;;1.20
71205;BMP180;58935;54.498;18.544;2024-03-17T07:00:02;100602.00;;;1.16
71205;BMP180;58935;54.498;18.544;2024-03-17T07:02:31;100602.20;;;1.08
71205;BMP180;58935;54.498;18.544;2024-03-17T07:04:58;100597.40;;;1.00
71205;BMP180;58935;54.498;18.544;2024-03-17T07:07:27;100608.40;;;1.00
71205;BMP180;58935;54.498;18.544;2024-03-17T07:09:53;100609.60;;;0.90
71205;BMP180;58935;54.498;18.544;2024-03-17T07:12:18;100621.60;;;0.80
71205;BMP180;58935;54.498;18.544;2024-03-17T07:14:45;100633.00;;;0.80
71205;BMP180;58935;54.498;18.544;2024-03-17T07:17:10;100616.80;;;0.80
71205;BMP180;58935;54.498;18.544;2024-03-17T07:19:35;100622.40;;;0.80
71205;BMP180;58935;54.498;18.544;2024-03-17T07:22:02;100625.40;;;0.80
71205;BMP180;58935;54.498;18.544;2024-03-17T07:24:29;100626.00;;;0.84
71205;BMP180;58935;54.498;18.544;2024-03-17T07:26:55;100623.60;;;0.90
71205;BMP180;58935;54.498;18.544;2024-03-17T07:29:21;100628.80;;;0.96
71205;BMP180;58935;54.498;18.544;2024-03-17T07:31:46;100640.80;;;1.00
71205;BMP180;58935;54.498;18.544;2024-03-17T07:34:12;100633.60;;;1.00
71205;BMP180;58935;54.498;18.544;2024-03-17T07:36:38;100636.80;;;1.00
71205;BMP180;58935;54.498;18.544;2024-03-17T07:39:04;100639.80;;;1.10
71205;BMP180;58935;54.498;18.544;2024-03-17T07:41:32;100643.20;;;1.10
71205;BMP180;58935;54.498;18.544;2024-03-17T07:43:58;100643.00;;;1.10
71205;BMP180;58935;54.498;18.544;2024-03-17T07:46:23;100645.40;;;1.16
71205;BMP180;58935;54.498;18.544;2024-03-17T07:48:48;100647.20;;;1.20
71205;BMP180;58935;54.498;18.544;2024-03-17T07:51:16;100647.60;;;1.20
71205;BMP180;58935;54.498;18.544;2024-03-17T07:53:44;100659.40;;;1.20
71205;BMP180;58935;54.498;18.544;2024-03-17T07:56:12;100659.00;;;1.20
71205;BMP180;58935;54.498;18.544;2024-03-17T07:58:40;100658.20;;;1.20
71205;BMP180;58935;54.498;18.544;2024-03-17T08:01:09;100667.40;;;1.20
71205;BMP180;58935;54.498;18.544;2024-03-17T08:03:37;100669.60;;;1.20
71205;BMP180;58935;54.498;18.544;2024-03-17T08:06:05;100673.00;;;1.16
71205;BMP180;58935;54.498;18.544;2024-03-17T08:08:32;100682.60;;;1.18
71205;BMP180;58935;54.498;18.544;2024-03-17T08:10:58;100681.20;;;1.10
71205;BMP180;58935;54.498;18.544;2024-03-17T08:13:24;100685.60;;;1.10
71205;BMP180;58935;54.498;18.544;2024-03-17T08:15:56;100693.20;;;1.10
71205;BMP180;58935;54.498;18.544;2024-03-17T08:18:22;100693.00;;;1.10
71205;BMP180;58935;54.498;18.544;2024-03-17T08:20:48;100688.40;;;1.10
71205;BMP180;58935;54.498;18.544;2024-03-17T08:23:13;100692.00;;;1.20
71205;BMP180;58935;54.498;18.544;2024-03-17T08:25:41;100697.60;;;1.20
71205;BMP180;58935;54.498;18.544;2024-03-17T08:28:07;100697.00;;;1.20
71205;BMP180;58935;54.498;18.544;2024-03-17T08:30:33;100703.20;;;1.20
71205;BMP180;58935;54.498;18.544;2024-03-17T08:32:59;100703.00;;;1.20
71205;BMP180;58935;54.498;18.544;2024-03-17T08:35:25;100711.00;;;1.20
71205;BMP180;58935;54.498;18.544;2024-03-17T08:37:51;100713.60;;;1.20
71205;BMP180;58935;54.498;18.544;2024-03-17T08:40:20;100711.40;;;1.20
71205;BMP180;58935;54.498;18.544;2024-03-17T08:42:46;100719.60;;;1.18
71205;BMP180;58935;54.498;18.544;2024-03-17T08:45:11;100723.60;;;1.10
71205;BMP180;58935;54.498;18.544;2024-03-17T08:47:38;100728.60;;;1.10
71205;BMP180;58935;54.498;18.544;2024-03-17T08:50:05;100722.60;;;1.10
71205;BMP180;58935;54.498;18.544;2024-03-17T08:52:34;100723.20;;;1.10
71205;BMP180;58935;54.498;18.544;2024-03-17T08:55:00;100725.20;;;1.20
71205;BMP180;58935;54.498;18.544;2024-03-17T08:57:28;100729.80;;;1.30
71205;BMP180;58935;54.498;18.544;2024-03-17T08:59:53;100735.80;;;1.30
71205;BMP180;58935;54.498;18.544;2024-03-17T09:02:21;100733.80;;;1.30
71205;BMP180;58935;54.498;18.544;2024-03-17T09:04:47;100738.20;;;1.30
71205;BMP180;58935;54.498;18.544;2024-03-17T09:07:13;100738.20;;;1.30
71205;BMP180;58935;54.498;18.544;2024-03-17T09:09:42;100735.00;;;1.40
71205;BMP180;58935;54.498;18.544;2024-03-17T09:12:08;100748.40;;;1.40
71205;BMP180;58935;54.498;18.544;2024-03-17T09:14:36;100753.00;;;1.50
71205;BMP180;58935;54.498;18.544;2024-03-17T09:17:04;100754.40;;;1.58
71205;BMP180;58935;54.498;18.544;2024-03-17T09:19:30;100766.20;;;1.58
71205;BMP180;58935;54.498;18.544;2024-03-17T09:21:58;100774.80;;;1.60
71205;BMP180;58935;54.498;18.544;2024-03-17T09:24:24;100774.80;;;1.60
71205;BMP180;58935;54.498;18.544;2024-03-17T09:26:49;100777.00;;;1.60
71205;BMP180;58935;54.498;18.544;2024-03-17T09:29:15;100779.80;;;1.70
71205;BMP180;58935;54.498;18.544;2024-03-17T09:31:41;100783.40;;;1.70
71205;BMP180;58935;54.498;18.544;2024-03-17T09:34:08;100781.20;;;1.70
71205;BMP180;58935;54.498;18.544;2024-03-17T09:36:34;100793.60;;;1.68
71205;BMP180;58935;54.498;18.544;2024-03-17T09:39:01;100798.20;;;1.50
71205;BMP180;58935;54.498;18.544;2024-03-17T09:41:29;100810.40;;;1.32
71205;BMP180;58935;54.498;18.544;2024-03-17T09:43:57;100796.40;;;1.30
71205;BMP180;58935;54.498;18.544;2024-03-17T09:46:26;100804.80;;;1.20
71205;BMP180;58935;54.498;18.544;2024-03-17T09:48:53;100804.60;;;1.20
71205;BMP180;58935;54.498;18.544;2024-03-17T09:51:24;100802.40;;;1.20
71205;BMP180;58935;54.498;18.544;2024-03-17T09:53:51;100806.60;;;1.20
71205;BMP180;58935;54.498;18.544;2024-03-17T09:56:20;100815.00;;;1.10
71205;BMP180;58935;54.498;18.544;2024-03-17T09:58:48;100812.00;;;1.10
71205;BMP180;58935;54.498;18.544;2024-03-17T10:01:14;100821.00;;;1.16
71205;BMP180;58935;54.498;18.544;2024-03-17T10:06:13;100816.80;;;1.38
71205;BMP180;58935;54.498;18.544;2024-03-17T10:08:57;100823.60;;;1.50
71205;BMP180;58935;54.498;18.544;2024-03-17T10:11:32;100816.60;;;1.70
71205;BMP180;58935;54.498;18.544;2024-03-17T10:14:08;100821.20;;;1.80
71205;BMP180;58935;54.498;18.544;2024-03-17T10:16:36;100822.40;;;1.80
71205;BMP180;58935;54.498;18.544;2024-03-17T10:19:07;100827.60;;;1.80
71205;BMP180;58935;54.498;18.544;2024-03-17T10:21:37;100821.20;;;1.82
71205;BMP180;58935;54.498;18.544;2024-03-17T10:24:08;100831.80;;;1.90
71205;BMP180;58935;54.498;18.544;2024-03-17T10:31:43;100838.60;;;2.10
71205;BMP180;58935;54.498;18.544;2024-03-17T10:34:15;100843.00;;;2.10
71205;BMP180;58935;54.498;18.544;2024-03-17T10:36:45;100859.40;;;2.10
71205;BMP180;58935;54.498;18.544;2024-03-17T10:39:22;100854.20;;;2.06
71205;BMP180;58935;54.498;18.544;2024-03-17T10:42:00;100857.40;;;1.90
71205;BMP180;58935;54.498;18.544;2024-03-17T10:44:30;100858.00;;;1.72
71205;BMP180;58935;54.498;18.544;2024-03-17T10:47:01;100853.20;;;1.70
71205;BMP180;58935;54.498;18.544;2024-03-17T10:49:30;100846.20;;;1.72
71205;BMP180;58935;54.498;18.544;2024-03-17T10:52:17;100853.80;;;1.90
71205;BMP180;58935;54.498;18.544;2024-03-17T10:54:49;100851.00;;;2.20
71205;BMP180;58935;54.498;18.544;2024-03-17T10:57:24;100863.20;;;2.28
71205;BMP180;58935;54.498;18.544;2024-03-17T10:59:55;100867.40;;;2.20
71205;BMP180;58935;54.498;18.544;2024-03-17T11:02:25;100889.20;;;1.92
71205;BMP180;58935;54.498;18.544;2024-03-17T11:04:54;100881.00;;;1.60
71205;BMP180;58935;54.498;18.544;2024-03-17T11:07:21;100868.80;;;1.46
71205;BMP180;58935;54.498;18.544;2024-03-17T11:09:51;100863.40;;;1.50
71205;BMP180;58935;54.498;18.544;2024-03-17T11:17:42;100867.20;;;1.92
71205;BMP180;58935;54.498;18.544;2024-03-17T11:20:15;100861.80;;;2.08
71205;BMP180;58935;54.498;18.544;2024-03-17T11:22:42;100868.40;;;2.10
71205;BMP180;58935;54.498;18.544;2024-03-17T11:27:45;100892.40;;;1.80
71205;BMP180;58935;54.498;18.544;2024-03-17T11:33:01;100896.20;;;1.30
71205;BMP180;58935;54.498;18.544;2024-03-17T11:35:29;100902.20;;;1.30
71205;BMP180;58935;54.498;18.544;2024-03-17T11:37:54;100897.80;;;1.30
71205;BMP180;58935;54.498;18.544;2024-03-17T11:40:24;100906.00;;;1.20
71205;BMP180;58935;54.498;18.544;2024-03-17T11:45:27;100906.80;;;0.84
71205;BMP180;58935;54.498;18.544;2024-03-17T11:47:52;100900.80;;;0.80
71205;BMP180;58935;54.498;18.544;2024-03-17T11:50:18;100896.80;;;0.90
71205;BMP180;58935;54.498;18.544;2024-03-17T11:52:44;100899.40;;;1.02
71205;BMP180;58935;54.498;18.544;2024-03-17T11:55:16;100901.00;;;1.20
71205;BMP180;58935;54.498;18.544;2024-03-17T11:57:42;100908.80;;;1.30
71205;BMP180;58935;54.498;18.544;2024-03-17T12:00:25;100923.60;;;1.30
71205;BMP180;58935;54.498;18.544;2024-03-17T12:02:51;100931.00;;;1.40
71205;BMP180;58935;54.498;18.544;2024-03-17T12:05:19;100923.00;;;1.42
71205;BMP180;58935;54.498;18.544;2024-03-17T12:07:46;100923.60;;;1.50
71205;BMP180;58935;54.498;18.544;2024-03-17T12:10:12;100920.60;;;1.60
71205;BMP180;58935;54.498;18.544;2024-03-17T12:12:39;100921.40;;;1.60
71205;BMP180;58935;54.498;18.544;2024-03-17T12:15:17;100921.20;;;1.68
71205;BMP180;58935;54.498;18.544;2024-03-17T12:17:46;100921.60;;;1.72
71205;BMP180;58935;54.498;18.544;2024-03-17T12:20:19;100923.00;;;1.80
71205;BMP180;58935;54.498;18.544;2024-03-17T12:22:48;100933.20;;;1.72
71205;BMP180;58935;54.498;18.544;2024-03-17T12:25:19;100941.00;;;1.40
71205;BMP180;58935;54.498;18.544;2024-03-17T12:27:48;100936.80;;;1.20
71205;BMP180;58935;54.498;18.544;2024-03-17T12:30:15;100938.60;;;1.10
71205;BMP180;58935;54.498;18.544;2024-03-17T12:32:42;100946.20;;;1.10
71205;BMP180;58935;54.498;18.544;2024-03-17T12:35:14;100946.00;;;1.10
71205;BMP180;58935;54.498;18.544;2024-03-17T12:37:44;100948.00;;;1.10
71205;BMP180;58935;54.498;18.544;2024-03-17T12:40:19;100942.80;;;1.10
71205;BMP180;58935;54.498;18.544;2024-03-17T12:42:49;100947.60;;;1.12
71205;BMP180;58935;54.498;18.544;2024-03-17T12:45:21;100946.20;;;1.20
71205;BMP180;58935;54.498;18.544;2024-03-17T12:47:49;100950.00;;;1.30
71205;BMP180;58935;54.498;18.544;2024-03-17T12:50:15;100949.20;;;1.30
71205;BMP180;58935;54.498;18.544;2024-03-17T12:52:52;100939.00;;;1.30
71205;BMP180;58935;54.498;18.544;2024-03-17T12:55:19;100940.80;;;1.30
71205;BMP180;58935;54.498;18.544;2024-03-17T12:57:50;100936.00;;;1.30
71205;BMP180;58935;54.498;18.544;2024-03-17T13:00:23;100936.40;;;1.32
71205;BMP180;58935;54.498;18.544;2024-03-17T13:02:51;100944.80;;;1.30
71205;BMP180;58935;54.498;18.544;2024-03-17T13:05:20;100944.80;;;1.20
71205;BMP180;58935;54.498;18.544;2024-03-17T13:07:47;100952.00;;;1.00
71205;BMP180;58935;54.498;18.544;2024-03-17T13:10:16;100958.20;;;0.90
71205;BMP180;58935;54.498;18.544;2024-03-17T13:12:46;100950.00;;;0.90
71205;BMP180;58935;54.498;18.544;2024-03-17T13:15:16;100967.20;;;0.80
71205;BMP180;58935;54.498;18.544;2024-03-17T13:17:45;100961.00;;;0.80
71205;BMP180;58935;54.498;18.544;2024-03-17T13:20:16;100956.60;;;0.80
71205;BMP180;58935;54.498;18.544;2024-03-17T13:22:43;100978.40;;;0.78
71205;BMP180;58935;54.498;18.544;2024-03-17T13:25:15;100961.00;;;0.78
71205;BMP180;58935;54.498;18.544;2024-03-17T13:27:45;100960.40;;;0.80
71205;BMP180;58935;54.498;18.544;2024-03-17T13:30:17;100962.60;;;0.80
71205;BMP180;58935;54.498;18.544;2024-03-17T13:32:43;100967.00;;;0.80
71205;BMP180;58935;54.498;18.544;2024-03-17T13:37:45;100976.60;;;0.90
71205;BMP180;58935;54.498;18.544;2024-03-17T13:40:11;100977.00;;;0.90
71205;BMP180;58935;54.498;18.544;2024-03-17T13:42:39;100977.60;;;0.90
71205;BMP180;58935;54.498;18.544;2024-03-17T13:45:10;100976.00;;;0.90
71205;BMP180;58935;54.498;18.544;2024-03-17T13:47:36;100969.80;;;0.90
71205;BMP180;58935;54.498;18.544;2024-03-17T13:50:02;100973.40;;;0.90
71205;BMP180;58935;54.498;18.544;2024-03-17T13:52:32;100978.20;;;0.88
71205;BMP180;58935;54.498;18.544;2024-03-17T13:54:58;100981.00;;;0.90
71205;BMP180;58935;54.498;18.544;2024-03-17T13:57:27;100970.20;;;0.90
71205;BMP180;58935;54.498;18.544;2024-03-17T13:59:54;100970.20;;;0.90
71205;BMP180;58935;54.498;18.544;2024-03-17T14:02:23;100974.00;;;1.00
71205;BMP180;58935;54.498;18.544;2024-03-17T14:04:48;100969.60;;;1.00
71205;BMP180;58935;54.498;18.544;2024-03-17T14:07:13;100982.20;;;1.00
71205;BMP180;58935;54.498;18.544;2024-03-17T14:09:43;100978.60;;;1.00
71205;BMP180;58935;54.498;18.544;2024-03-17T14:12:08;100982.60;;;1.00
71205;BMP180;58935;54.498;18.544;2024-03-17T14:14:34;100983.80;;;0.96
71205;BMP180;58935;54.498;18.544;2024-03-17T14:16:59;100981.60;;;0.90
71205;BMP180;58935;54.498;18.544;2024-03-17T14:19:27;100983.80;;;0.90
71205;BMP180;58935;54.498;18.544;2024-03-17T14:21:55;100981.60;;;0.88
71205;BMP180;58935;54.498;18.544;2024-03-17T14:24:20;100995.00;;;0.84
71205;BMP180;58935;54.498;18.544;2024-03-17T14:26:48;100993.40;;;0.80